createdAt,value
2018-09-05T00:02:51.077Z,0.10
2018-09-05T00:05:51.053Z,0.10
2018-09-05T00:08:51.014Z,0.10
2018-09-05T00:11:50.988Z,0.10
2018-09-05T00:14:50.950Z,0.20
2018-09-05T00:17:50.967Z,0.10
2018-09-05T00:20:50.895Z,0.10
2018-09-05T00:23:50.889Z,0.20
2018-09-05T00:26:50.818Z,0.20
2018-09-05T00:29:50.810Z,0.10
2018-09-05T00:32:50.753Z,0.10
2018-09-05T00:35:50.770Z,0.10
2018-09-05T00:38:50.672Z,0.10
2018-09-05T00:41:50.695Z,0.10
2018-09-05T00:44:50.625Z,0.10
2018-09-05T00:47:50.603Z,0.10
2018-09-05T00:50:50.538Z,0.20
2018-09-05T00:53:50.549Z,0.10
2018-09-05T00:56:50.550Z,0.10
2018-09-05T00:59:50.466Z,0.20
2018-09-05T01:02:50.412Z,0.20
2018-09-05T01:05:50.389Z,0.20
2018-09-05T01:08:50.375Z,0.10
2018-09-05T01:11:50.348Z,0.20
2018-09-05T01:14:50.267Z,0.10
2018-09-05T01:17:50.308Z,0.20
2018-09-05T01:20:50.248Z,0.10
2018-09-05T01:23:50.205Z,0.10
2018-09-05T01:26:50.149Z,0.10
2018-09-05T01:29:50.147Z,0.10
2018-09-05T01:32:50.092Z,0.20
2018-09-05T01:35:50.062Z,0.10
2018-09-05T01:38:50.006Z,0.10
2018-09-05T01:41:49.987Z,0.20
2018-09-05T01:44:49.940Z,0.10
2018-09-05T01:47:49.940Z,0.10
2018-09-05T01:50:49.867Z,0.10
2018-09-05T01:53:49.854Z,0.20
2018-09-05T01:56:49.811Z,0.10
2018-09-05T01:59:49.824Z,0.10
2018-09-05T02:02:49.735Z,0.10
2018-09-05T02:05:49.745Z,0.10
2018-09-05T02:08:49.673Z,0.20
2018-09-05T02:11:49.658Z,0.20
2018-09-05T02:14:49.610Z,0.10
2018-09-05T02:17:49.625Z,0.10
2018-09-05T02:20:49.557Z,0.10
2018-09-05T02:23:49.518Z,0.20
2018-09-05T02:26:49.472Z,0.20
2018-09-05T02:29:49.485Z,0.10
2018-09-05T02:32:49.406Z,0.10
2018-09-05T02:35:49.440Z,0.10
2018-09-05T02:38:49.349Z,0.10
2018-09-05T02:41:49.314Z,0.10
2018-09-05T02:44:49.287Z,0.10
2018-09-05T02:47:49.256Z,0.10
2018-09-05T02:50:49.220Z,0.10
2018-09-05T02:53:49.207Z,0.10
2018-09-05T02:56:49.179Z,0.10
2018-09-05T02:59:49.146Z,0.10
2018-09-05T03:02:49.072Z,0.10
2018-09-05T03:05:49.068Z,0.10
2018-09-05T03:08:49.012Z,0.10
2018-09-05T03:11:49.044Z,0.10
2018-09-05T03:14:48.943Z,0.10
2018-09-05T03:17:48.935Z,0.10
2018-09-05T03:20:48.898Z,0.10
2018-09-05T03:23:48.862Z,0.10
2018-09-05T03:26:48.798Z,0.10
2018-09-05T03:29:48.792Z,0.10
2018-09-05T03:32:48.863Z,0.10
2018-09-05T03:35:48.731Z,0.10
2018-09-05T03:38:48.700Z,0.10
2018-09-05T03:41:48.651Z,0.10
2018-09-05T03:44:48.628Z,0.10
2018-09-05T03:47:48.629Z,0.20
2018-09-05T03:50:48.593Z,0.20
2018-09-05T03:53:48.525Z,0.10
2018-09-05T03:56:48.476Z,0.10
2018-09-05T03:59:48.466Z,0.10
2018-09-05T04:02:48.402Z,0.10
2018-09-05T04:05:48.415Z,0.10
2018-09-05T04:08:48.351Z,0.20
2018-09-05T04:11:48.373Z,0.20
2018-09-05T04:14:48.316Z,0.10
2018-09-05T04:17:48.252Z,0.10
2018-09-05T04:20:48.220Z,0.10
2018-09-05T04:23:48.199Z,0.10
2018-09-05T04:26:48.140Z,0.10
2018-09-05T04:29:48.125Z,0.20
2018-09-05T04:32:48.070Z,0.20
2018-09-05T04:35:48.108Z,0.10
2018-09-05T04:38:47.999Z,0.10
2018-09-05T04:41:48.079Z,0.10
2018-09-05T04:44:47.963Z,0.10
2018-09-05T04:47:47.926Z,0.10
2018-09-05T04:50:47.881Z,0.10
2018-09-05T04:53:47.855Z,0.10
2018-09-05T04:56:47.814Z,0.10
2018-09-05T04:59:47.787Z,0.10
2018-09-05T05:02:47.734Z,0.20
2018-09-05T05:05:47.765Z,0.20
2018-09-05T05:08:47.701Z,0.20
2018-09-05T05:11:47.647Z,0.20
2018-09-05T05:14:47.632Z,0.20
2018-09-05T05:17:47.582Z,0.10
2018-09-05T05:20:47.575Z,0.10
2018-09-05T05:23:47.510Z,0.10
2018-09-05T05:26:47.479Z,0.20
2018-09-05T05:29:47.448Z,0.20
2018-09-05T05:32:47.462Z,0.10
2018-09-05T05:35:47.398Z,0.10
2018-09-05T05:38:47.341Z,0.10
2018-09-05T05:41:47.350Z,0.20
2018-09-05T05:44:47.303Z,0.10
2018-09-05T05:47:47.338Z,0.10
2018-09-05T05:50:47.198Z,0.20
2018-09-05T05:53:47.215Z,0.10
2018-09-05T05:56:47.181Z,0.10
2018-09-05T05:59:47.155Z,0.10
2018-09-05T06:02:47.070Z,0.10
2018-09-05T06:05:47.067Z,0.10
2018-09-05T06:08:47.012Z,0.10
2018-09-05T06:11:47.060Z,0.10
2018-09-05T06:14:46.954Z,0.10
2018-09-05T06:17:47.099Z,0.10
2018-09-05T06:20:46.903Z,0.10
2018-09-05T06:23:46.852Z,0.10
2018-09-05T06:26:46.821Z,0.10
2018-09-05T06:29:46.795Z,0.10
2018-09-05T06:32:46.732Z,0.10
2018-09-05T06:35:46.719Z,0.10
2018-09-05T06:38:46.674Z,0.10
2018-09-05T06:41:46.639Z,0.20
2018-09-05T06:44:46.625Z,0.10
2018-09-05T06:47:46.601Z,0.10
2018-09-05T06:50:46.536Z,0.10
2018-09-05T06:53:46.536Z,0.10
2018-09-05T06:56:46.499Z,0.10
2018-09-05T06:59:46.457Z,0.10
2018-09-05T07:02:46.422Z,0.10
2018-09-05T07:05:46.399Z,0.10
2018-09-05T07:08:46.331Z,0.10
2018-09-05T07:11:46.316Z,0.10
2018-09-05T07:14:46.282Z,0.10
2018-09-05T07:17:46.273Z,0.10
2018-09-05T07:20:46.198Z,0.10
2018-09-05T07:23:46.183Z,0.10
2018-09-05T07:26:46.134Z,0.10
2018-09-05T07:29:46.142Z,0.10
2018-09-05T07:32:46.087Z,0.10
2018-09-05T07:35:46.120Z,0.10
2018-09-05T07:38:46.004Z,0.10
2018-09-05T07:41:45.993Z,0.10
2018-09-05T07:44:45.947Z,0.10
2018-09-05T07:47:45.956Z,0.10
2018-09-05T07:50:45.982Z,0.10
2018-09-05T07:53:45.879Z,0.10
2018-09-05T07:56:45.832Z,0.10
2018-09-05T07:59:45.840Z,0.10
2018-09-05T08:02:45.763Z,0.10
2018-09-05T08:05:45.758Z,0.10
2018-09-05T08:08:45.684Z,0.10
2018-09-05T08:11:45.711Z,0.10
2018-09-05T08:14:45.616Z,0.10
2018-09-05T08:17:45.634Z,0.10
2018-09-05T08:20:45.583Z,0.10
2018-09-05T08:23:45.575Z,0.10
2018-09-05T08:26:45.512Z,0.10
2018-09-05T08:29:45.472Z,0.10
2018-09-05T08:32:45.419Z,0.00
2018-09-05T08:35:45.560Z,0.00
2018-09-05T08:38:45.430Z,0.00
2018-09-05T08:41:45.382Z,0.00
2018-09-05T08:44:45.546Z,0.00
2018-09-05T08:47:45.289Z,0.00
2018-09-05T08:50:45.241Z,0.10
2018-09-05T08:53:45.237Z,0.00
2018-09-05T08:56:45.182Z,0.00
2018-09-05T08:59:45.271Z,0.00
2018-09-05T09:02:45.201Z,0.00
2018-09-05T09:05:45.165Z,0.10
2018-09-05T09:08:45.053Z,0.10
2018-09-05T09:11:45.155Z,0.10
2018-09-05T09:14:45.014Z,0.10
2018-09-05T09:17:44.993Z,0.10
2018-09-05T09:20:45.568Z,0.10
2018-09-05T09:23:44.941Z,0.00
2018-09-05T09:26:51.663Z,0.10
2018-09-05T09:29:44.847Z,0.00
2018-09-05T09:32:44.822Z,0.10
2018-09-05T09:35:44.793Z,0.10
2018-09-05T09:38:44.750Z,0.10
2018-09-05T09:41:44.725Z,0.10
2018-09-05T09:44:44.678Z,0.10
2018-09-05T09:47:44.670Z,0.10
2018-09-05T09:50:44.627Z,0.10
2018-09-05T09:53:44.692Z,0.10
2018-09-05T09:56:44.712Z,0.10
2018-09-05T09:59:44.591Z,0.10
2018-09-05T10:02:44.551Z,0.10
2018-09-05T10:05:44.533Z,0.10
2018-09-05T10:08:44.484Z,0.10
2018-09-05T10:11:44.423Z,0.10
2018-09-05T10:14:44.421Z,0.10
2018-09-05T10:17:44.366Z,0.10
2018-09-05T10:20:44.336Z,0.10
2018-09-05T10:23:44.293Z,0.10
2018-09-05T10:26:44.305Z,0.20
2018-09-05T10:29:44.283Z,0.10
2018-09-05T10:32:44.310Z,0.10
2018-09-05T10:35:44.237Z,0.30
2018-09-05T10:38:44.144Z,0.10
2018-09-05T10:41:44.131Z,0.10
2018-09-05T10:44:44.173Z,0.20
2018-09-05T10:47:44.103Z,0.20
2018-09-05T10:50:44.114Z,0.30
2018-09-05T10:53:44.142Z,0.30
2018-09-05T10:56:44.594Z,0.20
2018-09-05T10:59:44.240Z,0.20
2018-09-05T11:02:44.000Z,0.20
2018-09-05T11:05:44.299Z,0.20
2018-09-05T11:08:43.933Z,0.40
2018-09-05T11:11:43.968Z,0.30
2018-09-05T11:14:43.836Z,0.40
2018-09-05T11:17:43.782Z,0.40
2018-09-05T11:20:43.734Z,0.60
2018-09-05T11:23:43.748Z,0.60
2018-09-05T11:26:44.082Z,0.50
2018-09-05T11:29:43.682Z,0.50
2018-09-05T11:32:43.650Z,0.60
2018-09-05T11:35:43.631Z,0.70
2018-09-05T11:38:43.591Z,0.40
2018-09-05T11:41:43.551Z,0.30
2018-09-05T11:44:43.538Z,0.20
2018-09-05T11:47:43.522Z,0.20
2018-09-05T11:50:43.480Z,0.20
2018-09-05T11:53:43.472Z,0.30
2018-09-05T11:56:43.433Z,0.60
2018-09-05T11:59:43.393Z,0.60
2018-09-05T12:02:43.357Z,0.50
2018-09-05T12:05:43.361Z,0.50
2018-09-05T12:08:43.313Z,0.50
2018-09-05T12:11:43.356Z,0.30
2018-09-05T12:14:43.268Z,0.30
2018-09-05T12:17:43.229Z,0.50
2018-09-05T12:20:43.198Z,0.60
2018-09-05T12:23:43.217Z,0.60
2018-09-05T12:26:43.140Z,0.60
2018-09-05T12:29:43.170Z,0.50
2018-09-05T12:32:43.080Z,0.50
2018-09-05T12:35:43.103Z,0.50
2018-09-05T12:38:43.085Z,0.50
2018-09-05T12:41:43.120Z,0.50
2018-09-05T12:44:43.004Z,0.60
2018-09-05T12:47:43.061Z,0.40
2018-09-05T12:50:43.010Z,0.30
2018-09-05T12:53:42.963Z,0.30
2018-09-05T12:56:42.929Z,0.20
2018-09-05T12:59:42.889Z,0.10
2018-09-05T13:02:42.832Z,0.10
2018-09-05T13:05:42.821Z,0.10
2018-09-05T13:08:42.872Z,0.20
2018-09-05T13:11:42.820Z,0.10
2018-09-05T13:14:42.727Z,0.10
2018-09-05T13:17:42.707Z,0.10
2018-09-05T13:20:42.677Z,0.10
2018-09-05T13:23:42.611Z,0.10
2018-09-05T13:26:42.672Z,0.10
2018-09-05T13:29:42.573Z,0.10
2018-09-05T13:32:42.499Z,0.10
2018-09-05T13:35:42.502Z,0.10
2018-09-05T13:38:42.510Z,0.00
2018-09-05T13:41:42.493Z,0.10
2018-09-05T13:44:42.378Z,0.00
2018-09-05T13:47:42.414Z,0.00
2018-09-05T13:50:42.337Z,0.00
2018-09-05T13:53:42.363Z,0.00
2018-09-05T13:56:42.340Z,0.10
2018-09-05T13:59:42.267Z,0.10
2018-09-05T14:02:42.308Z,0.00
2018-09-05T14:05:42.189Z,0.00
2018-09-05T14:08:42.160Z,0.00
2018-09-05T14:11:44.272Z,0.00
2018-09-05T14:14:43.078Z,0.00
2018-09-05T14:17:42.057Z,0.00
2018-09-05T14:20:43.099Z,0.00
2018-09-05T14:23:43.664Z,0.00
2018-09-05T14:26:41.971Z,0.00
2018-09-05T14:29:41.918Z,0.00
2018-09-05T14:32:41.916Z,0.00
2018-09-05T14:35:41.861Z,0.00
2018-09-05T14:38:42.829Z,0.00
2018-09-05T14:41:41.791Z,0.00
2018-09-05T14:44:41.749Z,0.00
2018-09-05T14:47:41.728Z,0.00
2018-09-05T14:50:41.684Z,0.00
2018-09-05T14:53:41.678Z,0.00
2018-09-05T14:56:41.619Z,0.00
2018-09-05T14:59:41.621Z,0.00
2018-09-05T15:02:41.564Z,0.00
2018-09-05T15:05:41.570Z,0.10
2018-09-05T15:08:41.510Z,0.10
2018-09-05T15:11:41.491Z,0.10
2018-09-05T15:14:41.486Z,0.00
2018-09-05T15:17:41.548Z,0.00
2018-09-05T15:20:41.375Z,0.00
2018-09-05T15:23:41.463Z,0.00
2018-09-05T15:26:41.420Z,0.00
2018-09-05T15:29:41.300Z,0.00
2018-09-05T15:32:41.263Z,0.00
2018-09-05T15:35:41.289Z,0.00
2018-09-05T15:38:41.182Z,0.00
2018-09-05T15:41:41.187Z,0.00
2018-09-05T15:44:41.209Z,0.00
2018-09-05T15:47:41.129Z,0.00
2018-09-05T15:50:41.075Z,0.00
2018-09-05T15:53:41.079Z,0.00
2018-09-05T15:56:41.062Z,0.00
2018-09-05T15:59:41.059Z,0.00
2018-09-05T16:02:40.944Z,0.00
2018-09-05T16:05:42.602Z,0.00
2018-09-05T16:08:40.900Z,0.00
2018-09-05T16:11:40.891Z,0.00
2018-09-05T16:14:40.833Z,0.10
2018-09-05T16:17:40.793Z,0.00
2018-09-05T16:20:40.749Z,0.00
2018-09-05T16:23:40.721Z,0.00
2018-09-05T16:26:48.018Z,0.00
2018-09-05T16:29:40.655Z,0.00
2018-09-05T16:32:40.597Z,0.00
2018-09-05T16:35:40.639Z,0.10
2018-09-05T16:38:40.534Z,0.00
2018-09-05T16:41:40.525Z,0.10
2018-09-05T16:44:40.473Z,0.10
2018-09-05T16:47:40.497Z,0.00
2018-09-05T16:50:40.407Z,0.10
2018-09-05T16:53:40.427Z,0.10
2018-09-05T16:56:40.375Z,0.10
2018-09-05T16:59:40.341Z,0.10
2018-09-05T17:02:40.275Z,0.10
2018-09-05T17:05:40.279Z,0.10
2018-09-05T17:08:40.254Z,0.10
2018-09-05T17:11:40.221Z,0.10
2018-09-05T17:14:40.142Z,0.00
2018-09-05T17:17:40.147Z,0.10
2018-09-05T17:20:40.108Z,0.10
2018-09-05T17:23:40.077Z,0.10
2018-09-05T17:26:40.042Z,0.00
2018-09-05T17:29:40.005Z,0.10
2018-09-05T17:32:39.951Z,0.00
2018-09-05T17:35:39.944Z,0.10
2018-09-05T17:38:39.887Z,0.00
2018-09-05T17:41:39.875Z,0.10
2018-09-05T17:44:39.825Z,0.10
2018-09-05T17:47:39.832Z,0.00
2018-09-05T17:50:39.773Z,0.10
2018-09-05T17:53:39.814Z,0.00
2018-09-05T17:56:39.688Z,0.10
2018-09-05T17:59:39.685Z,0.10
2018-09-05T18:02:39.632Z,0.10
2018-09-05T18:05:39.645Z,0.10
2018-09-05T18:08:39.565Z,0.10
2018-09-05T18:11:39.561Z,0.10
2018-09-05T18:14:39.610Z,0.10
2018-09-05T18:17:39.506Z,0.10
2018-09-05T18:20:39.449Z,0.10
2018-09-05T18:23:39.420Z,0.10
2018-09-05T18:26:39.372Z,0.10
2018-09-05T18:29:39.400Z,0.10
2018-09-05T18:32:39.299Z,0.10
2018-09-05T18:35:39.293Z,0.10
2018-09-05T18:38:39.257Z,0.10
2018-09-05T18:41:39.213Z,0.10
2018-09-05T18:44:39.172Z,0.10
2018-09-05T18:47:39.136Z,0.10
2018-09-05T18:50:39.152Z,0.10
2018-09-05T18:53:39.101Z,0.10
2018-09-05T18:56:39.031Z,0.10
2018-09-05T18:59:39.069Z,0.10
2018-09-05T19:02:41.992Z,0.10
2018-09-05T19:05:49.583Z,0.10
2018-09-05T19:08:38.915Z,0.10
2018-09-05T19:11:38.879Z,0.20
2018-09-05T19:14:38.827Z,0.10
2018-09-05T19:17:38.812Z,0.50
2018-09-05T19:20:38.761Z,0.10
2018-09-05T19:23:38.752Z,0.10
2018-09-05T19:26:38.697Z,0.10
2018-09-05T19:29:38.668Z,0.10
2018-09-05T19:32:38.624Z,0.10
2018-09-05T19:35:38.712Z,0.10
2018-09-05T19:38:38.607Z,0.10
2018-09-05T19:41:38.540Z,0.10
2018-09-05T19:44:38.494Z,0.10
2018-09-05T19:47:38.481Z,0.10
2018-09-05T19:50:38.447Z,0.10
2018-09-05T19:53:38.440Z,0.10
2018-09-05T19:56:38.426Z,0.10
2018-09-05T19:59:38.336Z,0.10
2018-09-05T20:02:38.300Z,0.10
2018-09-05T20:05:38.278Z,0.10
2018-09-05T20:08:38.254Z,0.10
2018-09-05T20:11:38.210Z,0.10
2018-09-05T20:14:38.250Z,0.10
2018-09-05T20:17:38.139Z,0.10
2018-09-05T20:20:38.089Z,0.10
2018-09-05T20:23:38.079Z,0.20
2018-09-05T20:26:38.029Z,0.20
2018-09-05T20:29:38.000Z,0.20
2018-09-05T20:32:37.979Z,0.10
2018-09-05T20:35:38.554Z,0.10
2018-09-05T20:38:37.893Z,0.20
2018-09-05T20:41:37.872Z,0.20
2018-09-05T20:44:37.835Z,0.10
2018-09-05T20:47:37.805Z,0.10
2018-09-05T20:50:37.766Z,0.20
2018-09-05T20:53:37.747Z,0.20
2018-09-05T20:56:37.694Z,0.30
2018-09-05T20:59:37.687Z,0.10
2018-09-05T21:02:37.628Z,0.30
2018-09-05T21:05:37.607Z,0.10
2018-09-05T21:08:37.631Z,0.20
2018-09-05T21:11:37.550Z,0.20
2018-09-05T21:14:37.529Z,0.20
2018-09-05T21:17:37.490Z,0.20
2018-09-05T21:20:37.442Z,0.10
2018-09-05T21:23:37.441Z,0.20
2018-09-05T21:26:37.463Z,0.40
2018-09-05T21:29:37.367Z,0.10
2018-09-05T21:32:37.324Z,0.10
2018-09-05T21:35:37.283Z,0.10
2018-09-05T21:38:37.253Z,0.10
2018-09-05T21:41:37.213Z,0.10
2018-09-05T21:44:37.169Z,0.20
2018-09-05T21:47:37.152Z,0.20
2018-09-05T21:50:37.101Z,0.20
2018-09-05T21:53:37.143Z,0.20
2018-09-05T21:56:37.036Z,0.20
2018-09-05T21:59:37.012Z,0.10
2018-09-05T22:02:36.966Z,0.10
2018-09-05T22:05:36.954Z,0.10
2018-09-05T22:08:36.895Z,0.10
2018-09-05T22:11:36.973Z,0.10
2018-09-05T22:14:36.843Z,0.10
2018-09-05T22:17:36.829Z,0.10
2018-09-05T22:20:36.819Z,0.10
2018-09-05T22:23:36.746Z,0.10
2018-09-05T22:26:36.713Z,0.10
2018-09-05T22:29:36.682Z,0.20
2018-09-05T22:32:36.630Z,0.50
2018-09-05T22:35:36.609Z,0.50
2018-09-05T22:38:36.610Z,0.40
2018-09-05T22:41:36.547Z,0.50
2018-09-05T22:44:36.512Z,0.20
2018-09-05T22:47:36.481Z,0.20
2018-09-05T22:50:36.449Z,0.20
2018-09-05T22:53:36.425Z,0.30
2018-09-05T22:56:36.389Z,0.30
2018-09-05T22:59:36.343Z,0.70
2018-09-05T23:02:36.303Z,0.60
2018-09-05T23:05:36.293Z,0.80
2018-09-05T23:08:36.228Z,1.00
2018-09-05T23:11:36.217Z,1.00
2018-09-05T23:14:36.168Z,1.30
2018-09-05T23:17:36.158Z,1.20
2018-09-05T23:20:36.098Z,1.60
2018-09-05T23:23:36.099Z,1.30
2018-09-05T23:26:36.040Z,1.50
2018-09-05T23:29:36.021Z,1.10
2018-09-05T23:32:35.975Z,1.10
2018-09-05T23:35:35.943Z,1.10
2018-09-05T23:38:35.921Z,1.10
2018-09-05T23:41:35.874Z,1.00
2018-09-05T23:44:35.849Z,1.00
2018-09-05T23:47:35.817Z,1.10
2018-09-05T23:50:35.774Z,1.20
2018-09-05T23:53:35.748Z,1.20
2018-09-05T23:56:35.715Z,1.60
2018-09-05T23:59:35.687Z,1.40
